createdAt,value
2019-05-19T00:03:36.171Z,12.36
2019-05-19T00:08:37.942Z,12.33
2019-05-19T00:13:39.428Z,12.33
2019-05-19T00:18:41.111Z,12.28
2019-05-19T00:23:42.620Z,12.31
2019-05-19T00:28:44.226Z,12.33
2019-05-19T00:33:45.882Z,12.34
2019-05-19T00:38:47.469Z,12.35
2019-05-19T00:43:49.166Z,12.41
2019-05-19T00:48:52.165Z,12.42
2019-05-19T00:53:53.885Z,12.35
2019-05-19T00:58:57.815Z,12.31
2019-05-19T01:03:59.493Z,12.25
2019-05-19T01:09:01.066Z,12.23
2019-05-19T01:14:03.940Z,12.26
2019-05-19T01:19:05.522Z,12.30
2019-05-19T01:24:06.990Z,12.26
2019-05-19T01:29:08.599Z,12.23
2019-05-19T01:34:10.073Z,12.23
2019-05-19T01:39:11.548Z,12.19
2019-05-19T01:44:13.167Z,12.09
2019-05-19T01:49:14.650Z,12.03
2019-05-19T01:54:16.800Z,12.01
2019-05-19T01:59:18.463Z,12.01
2019-05-19T02:04:19.931Z,11.94
2019-05-19T02:09:21.408Z,11.89
2019-05-19T02:14:23.098Z,11.79
2019-05-19T02:19:24.597Z,11.63
2019-05-19T02:24:26.162Z,11.48
2019-05-19T02:29:27.679Z,11.36
2019-05-19T02:34:29.162Z,11.27
2019-05-19T02:39:30.636Z,11.20
2019-05-19T02:44:35.925Z,11.15
2019-05-19T02:49:39.397Z,11.13
2019-05-19T02:54:41.273Z,11.05
2019-05-19T02:59:43.998Z,10.99
2019-05-19T03:04:45.477Z,10.93
2019-05-19T03:09:46.954Z,10.92
2019-05-19T03:14:48.444Z,10.96
2019-05-19T03:19:49.913Z,10.93
2019-05-19T03:24:51.374Z,10.95
2019-05-19T03:29:54.813Z,10.94
2019-05-19T03:34:56.294Z,10.94
2019-05-19T03:39:57.882Z,10.94
2019-05-19T03:44:59.394Z,10.95
2019-05-19T03:50:00.977Z,10.98
2019-05-19T03:55:05.467Z,10.98
2019-05-19T04:00:08.690Z,11.02
2019-05-19T04:05:11.065Z,11.07
2019-05-19T04:10:13.856Z,11.15
2019-05-19T04:15:16.330Z,11.22
2019-05-19T04:20:17.914Z,11.26
2019-05-19T04:25:19.387Z,11.35
2019-05-19T04:30:21.123Z,11.52
2019-05-19T04:35:22.706Z,11.64
2019-05-19T04:40:24.192Z,11.78
2019-05-19T04:45:25.687Z,11.89
2019-05-19T04:50:27.165Z,12.03
2019-05-19T04:55:28.844Z,12.16
2019-05-19T05:00:30.362Z,12.34
2019-05-19T05:05:31.834Z,12.54
2019-05-19T05:10:33.448Z,12.67
2019-05-19T05:15:34.923Z,12.74
2019-05-19T05:20:36.402Z,12.86
2019-05-19T05:25:37.878Z,13.00
2019-05-19T05:30:39.395Z,13.06
2019-05-19T05:35:40.867Z,13.27
2019-05-19T05:40:42.349Z,13.55
2019-05-19T05:45:43.879Z,13.74
2019-05-19T05:50:45.386Z,13.99
2019-05-19T05:55:46.979Z,14.23
2019-05-19T06:00:48.603Z,14.53
2019-05-19T06:05:50.086Z,14.88
2019-05-19T06:10:52.783Z,15.22
2019-05-19T06:15:54.321Z,15.37
2019-05-19T06:20:55.811Z,15.59
2019-05-19T06:25:57.281Z,15.74
2019-05-19T06:30:58.899Z,15.90
2019-05-19T06:36:00.387Z,16.18
2019-05-19T06:41:01.864Z,16.38
2019-05-19T06:46:03.588Z,16.69
2019-05-19T06:51:05.060Z,16.93
2019-05-19T06:56:06.634Z,17.04
2019-05-19T07:01:08.144Z,17.24
2019-05-19T07:06:09.730Z,17.41
2019-05-19T07:11:11.218Z,17.62
2019-05-19T07:16:12.707Z,17.88
2019-05-19T07:21:14.193Z,18.29
2019-05-19T07:26:15.672Z,18.64
2019-05-19T07:31:17.202Z,18.73
2019-05-19T07:36:18.685Z,18.91
2019-05-19T07:41:20.261Z,19.01
2019-05-19T07:46:22.972Z,19.16
2019-05-19T07:51:24.577Z,19.44
2019-05-19T07:56:26.051Z,19.72
2019-05-19T08:01:28.286Z,20.07
2019-05-19T08:06:29.763Z,20.33
2019-05-19T08:11:31.240Z,20.59
2019-05-19T08:16:32.712Z,20.85
2019-05-19T08:21:34.200Z,20.99
2019-05-19T08:26:35.668Z,21.12
2019-05-19T08:31:38.378Z,21.34
2019-05-19T08:36:39.885Z,21.55
2019-05-19T08:41:41.378Z,21.67
2019-05-19T08:46:43.327Z,21.82
2019-05-19T08:51:44.909Z,21.95
2019-05-19T08:56:46.371Z,22.05
2019-05-19T09:01:47.891Z,22.03
2019-05-19T09:06:49.372Z,22.09
2019-05-19T09:11:50.839Z,22.17
2019-05-19T09:16:52.319Z,22.17
2019-05-19T09:21:53.904Z,22.01
2019-05-19T09:26:55.481Z,21.94
2019-05-19T09:31:57.002Z,22.18
2019-05-19T09:36:58.683Z,22.39
2019-05-19T09:42:00.159Z,22.58
2019-05-19T09:47:01.657Z,22.63
2019-05-19T09:52:04.839Z,22.72
2019-05-19T09:57:06.445Z,22.58
2019-05-19T10:02:08.220Z,22.53
2019-05-19T10:07:09.994Z,22.26
2019-05-19T10:12:11.659Z,22.54
2019-05-19T10:17:13.335Z,22.58
2019-05-19T10:22:14.923Z,22.39
2019-05-19T10:27:16.834Z,22.18
2019-05-19T10:32:18.682Z,22.26
2019-05-19T10:37:21.387Z,22.71
2019-05-19T10:42:22.864Z,22.75
2019-05-19T10:47:24.378Z,22.76
2019-05-19T10:52:25.883Z,23.03
2019-05-19T10:57:27.342Z,23.15
2019-05-19T11:02:28.977Z,23.50
2019-05-19T11:07:30.454Z,23.51
2019-05-19T11:12:32.037Z,23.58
2019-05-19T11:17:33.615Z,23.55
2019-05-19T11:22:35.098Z,23.50
2019-05-19T11:27:36.587Z,22.99
2019-05-19T11:32:38.109Z,23.41
2019-05-19T11:37:39.592Z,23.76
2019-05-19T11:42:41.117Z,23.93
2019-05-19T11:47:42.613Z,24.11
2019-05-19T11:52:44.382Z,24.30
2019-05-19T11:57:46.100Z,24.45
2019-05-19T12:02:47.830Z,24.44
2019-05-19T12:07:49.409Z,24.39
2019-05-19T12:12:50.993Z,24.49
2019-05-19T12:17:52.671Z,24.72
2019-05-19T12:22:54.952Z,24.43
2019-05-19T12:27:56.581Z,23.73
2019-05-19T12:32:59.506Z,22.77
2019-05-19T12:38:02.245Z,21.70
2019-05-19T12:43:03.970Z,20.94
2019-05-19T12:48:05.457Z,20.58
2019-05-19T12:53:07.082Z,20.20
2019-05-19T12:58:08.766Z,19.43
2019-05-19T13:03:10.412Z,18.87
2019-05-19T13:08:12.012Z,18.58
2019-05-19T13:13:13.488Z,18.48
2019-05-19T13:18:14.965Z,18.41
2019-05-19T13:23:16.452Z,18.42
2019-05-19T13:28:18.019Z,18.49
2019-05-19T13:33:19.667Z,18.52
2019-05-19T13:38:22.247Z,18.59
2019-05-19T13:43:26.364Z,19.22
2019-05-19T13:48:27.702Z,19.91
2019-05-19T13:53:29.185Z,20.45
2019-05-19T13:58:30.980Z,20.92
2019-05-19T14:03:32.595Z,21.23
2019-05-19T14:08:34.121Z,21.22
2019-05-19T14:13:35.598Z,20.96
2019-05-19T14:18:37.073Z,20.70
2019-05-19T14:23:38.549Z,20.48
2019-05-19T14:28:41.122Z,20.37
2019-05-19T14:33:42.605Z,20.90
2019-05-19T14:38:59.805Z,21.23
2019-05-19T14:44:03.503Z,21.50
2019-05-19T14:49:05.026Z,21.74
2019-05-19T14:54:06.611Z,21.57
2019-05-19T14:59:08.091Z,21.38
2019-05-19T15:04:09.571Z,21.57
2019-05-19T15:09:11.198Z,21.75
2019-05-19T15:14:12.781Z,21.87
2019-05-19T15:19:14.360Z,21.77
2019-05-19T15:24:15.837Z,21.71
2019-05-19T15:29:17.332Z,21.78
2019-05-19T15:34:18.881Z,21.82
2019-05-19T15:39:20.755Z,21.78
2019-05-19T15:44:22.274Z,21.70
2019-05-19T15:49:23.755Z,21.56
2019-05-19T15:54:25.336Z,21.39
2019-05-19T15:59:26.922Z,21.13
2019-05-19T16:04:28.427Z,20.97
2019-05-19T16:09:30.039Z,20.89
2019-05-19T16:14:31.512Z,20.71
2019-05-19T16:19:32.993Z,20.62
2019-05-19T16:24:34.474Z,20.57
2019-05-19T16:29:36.049Z,20.56
2019-05-19T16:34:37.647Z,20.57
2019-05-19T16:39:39.577Z,20.58
2019-05-19T16:44:41.103Z,20.54
2019-05-19T16:49:42.802Z,20.44
2019-05-19T16:54:49.202Z,20.39
2019-05-19T16:59:50.683Z,20.27
2019-05-19T17:04:52.154Z,20.07
2019-05-19T17:09:53.674Z,19.91
2019-05-19T17:14:55.159Z,19.70
2019-05-19T17:19:56.640Z,19.55
2019-05-19T17:25:00.339Z,19.40
2019-05-19T17:30:06.886Z,19.26
2019-05-19T17:35:09.366Z,19.10
2019-05-19T17:40:12.185Z,18.94
2019-05-19T17:45:14.667Z,18.78
2019-05-19T17:50:32.459Z,18.60
2019-05-19T17:55:35.256Z,18.40
2019-05-19T18:00:40.128Z,18.28
2019-05-19T18:05:41.710Z,18.15
2019-05-19T18:10:43.333Z,18.08
2019-05-19T18:15:44.948Z,17.98
2019-05-19T18:20:47.158Z,17.89
2019-05-19T18:25:48.842Z,17.80
2019-05-19T18:30:50.325Z,17.65
2019-05-19T18:35:52.919Z,17.56
2019-05-19T18:40:54.488Z,17.41
2019-05-19T18:45:56.061Z,17.32
2019-05-19T18:50:57.582Z,17.23
2019-05-19T18:55:59.264Z,17.25
2019-05-19T19:01:00.737Z,17.25
2019-05-19T19:06:02.425Z,17.18
2019-05-19T19:11:04.110Z,17.07
2019-05-19T19:16:05.635Z,16.98
2019-05-19T19:21:07.289Z,16.88
2019-05-19T19:26:08.764Z,16.80
2019-05-19T19:31:10.249Z,16.72
2019-05-19T19:36:11.725Z,16.64
2019-05-19T19:41:13.301Z,16.58
2019-05-19T19:46:14.930Z,16.53
2019-05-19T19:51:17.514Z,16.44
2019-05-19T19:56:18.989Z,16.41
2019-05-19T20:01:20.555Z,16.42
2019-05-19T20:06:22.036Z,16.41
2019-05-19T20:11:23.826Z,16.43
2019-05-19T20:16:25.340Z,16.32
2019-05-19T20:21:26.959Z,16.23
2019-05-19T20:26:28.441Z,16.09
2019-05-19T20:31:31.509Z,15.98
2019-05-19T20:36:33.253Z,15.93
2019-05-19T20:41:34.891Z,15.84
2019-05-19T20:46:36.500Z,15.77
2019-05-19T20:51:37.977Z,15.72
2019-05-19T20:56:39.458Z,15.74
2019-05-19T21:01:40.935Z,15.78
2019-05-19T21:06:42.411Z,15.69
2019-05-19T21:11:44.163Z,15.61
2019-05-19T21:16:45.647Z,15.55
2019-05-19T21:21:47.531Z,15.48
2019-05-19T21:26:49.115Z,15.47
2019-05-19T21:31:50.586Z,15.46
2019-05-19T21:36:52.059Z,15.46
2019-05-19T21:41:53.593Z,15.47
2019-05-19T21:46:55.112Z,15.47
2019-05-19T21:51:56.590Z,15.52
2019-05-19T21:56:58.177Z,15.55
2019-05-19T22:02:00.167Z,15.55
2019-05-19T22:07:09.559Z,15.50
2019-05-19T22:12:11.189Z,15.44
2019-05-19T22:17:12.664Z,15.41
2019-05-19T22:22:14.238Z,15.39
2019-05-19T22:27:15.721Z,15.41
2019-05-19T22:32:17.195Z,15.45
2019-05-19T22:37:18.663Z,15.44
2019-05-19T22:42:20.230Z,15.36
2019-05-19T22:47:21.730Z,15.22
2019-05-19T22:52:23.207Z,15.06
2019-05-19T22:57:24.688Z,15.00
2019-05-19T23:02:26.175Z,14.94
2019-05-19T23:07:27.665Z,14.91
2019-05-19T23:12:29.180Z,14.84
2019-05-19T23:17:30.763Z,14.79
2019-05-19T23:22:32.260Z,14.69
2019-05-19T23:27:33.923Z,14.63
2019-05-19T23:32:35.410Z,14.62
2019-05-19T23:37:36.888Z,14.55
2019-05-19T23:42:38.535Z,14.53
2019-05-19T23:47:40.054Z,14.54
2019-05-19T23:52:41.524Z,14.56
2019-05-19T23:57:43.106Z,14.56
